createdAt,value
2019-02-07T00:00:27.186Z,994.87
2019-02-07T00:01:27.275Z,994.88
2019-02-07T00:02:27.361Z,994.85
2019-02-07T00:03:27.554Z,994.82
2019-02-07T00:04:27.537Z,994.84
2019-02-07T00:05:27.625Z,994.78
2019-02-07T00:06:27.710Z,994.78
2019-02-07T00:07:27.795Z,994.72
2019-02-07T00:08:27.879Z,994.75
2019-02-07T00:09:27.966Z,994.71
2019-02-07T00:10:28.047Z,994.75
2019-02-07T00:11:28.137Z,994.74
2019-02-07T00:12:28.227Z,994.71
2019-02-07T00:13:28.323Z,994.74
2019-02-07T00:14:39.334Z,994.70
2019-02-07T00:15:28.496Z,994.71
2019-02-07T00:16:28.582Z,994.72
2019-02-07T00:17:28.673Z,994.70
2019-02-07T00:18:28.752Z,994.71
2019-02-07T00:19:28.840Z,994.69
2019-02-07T00:20:28.925Z,994.63
2019-02-07T00:21:29.012Z,994.57
2019-02-07T00:22:29.099Z,994.56
2019-02-07T00:23:29.185Z,994.54
2019-02-07T00:24:29.263Z,994.54
2019-02-07T00:25:29.345Z,994.56
2019-02-07T00:26:29.434Z,994.54
2019-02-07T00:27:29.518Z,994.53
2019-02-07T00:28:29.603Z,994.53
2019-02-07T00:29:29.690Z,994.54
2019-02-07T00:30:29.772Z,994.52
2019-02-07T00:31:29.853Z,994.48
2019-02-07T00:32:29.938Z,994.46
2019-02-07T00:33:30.023Z,994.48
2019-02-07T00:34:30.112Z,994.45
2019-02-07T00:35:30.200Z,994.44
2019-02-07T00:36:30.285Z,994.49
2019-02-07T00:37:30.370Z,994.48
2019-02-07T00:38:30.458Z,994.43
2019-02-07T00:39:30.543Z,994.47
2019-02-07T00:40:30.631Z,994.42
2019-02-07T00:41:30.725Z,994.45
2019-02-07T00:42:30.798Z,994.39
2019-02-07T00:43:30.893Z,994.37
2019-02-07T00:44:30.982Z,994.41
2019-02-07T00:45:31.068Z,994.36
2019-02-07T00:46:31.154Z,994.37
2019-02-07T00:47:31.243Z,994.33
2019-02-07T00:48:31.334Z,994.31
2019-02-07T00:49:31.417Z,994.32
2019-02-07T00:50:31.505Z,994.25
2019-02-07T00:51:31.591Z,994.34
2019-02-07T00:52:31.676Z,994.31
2019-02-07T00:53:31.762Z,994.33
2019-02-07T00:54:31.852Z,994.31
2019-02-07T00:55:31.936Z,994.28
2019-02-07T00:56:32.026Z,994.23
2019-02-07T00:57:32.109Z,994.24
2019-02-07T00:58:32.194Z,994.28
2019-02-07T00:59:32.289Z,994.27
2019-02-07T01:00:32.371Z,994.23
2019-02-07T01:01:32.457Z,994.23
2019-02-07T01:02:32.544Z,994.25
2019-02-07T01:03:32.632Z,994.24
2019-02-07T01:04:32.714Z,994.21
2019-02-07T01:05:32.801Z,994.21
2019-02-07T01:06:32.887Z,994.17
2019-02-07T01:07:33.076Z,994.18
2019-02-07T01:08:33.058Z,994.16
2019-02-07T01:09:33.146Z,994.13
2019-02-07T01:10:33.233Z,994.12
2019-02-07T01:11:33.319Z,994.12
2019-02-07T01:12:33.403Z,994.17
2019-02-07T01:13:33.486Z,994.12
2019-02-07T01:14:33.582Z,994.16
2019-02-07T01:15:33.668Z,994.08
2019-02-07T01:16:33.754Z,994.04
2019-02-07T01:17:33.842Z,994.06
2019-02-07T01:18:33.938Z,994.03
2019-02-07T01:19:34.027Z,994.01
2019-02-07T01:20:34.113Z,993.98
2019-02-07T01:21:34.200Z,993.97
2019-02-07T01:22:34.287Z,993.97
2019-02-07T01:23:34.371Z,993.91
2019-02-07T01:24:34.455Z,993.91
2019-02-07T01:25:34.633Z,993.89
2019-02-07T01:26:34.625Z,993.86
2019-02-07T01:27:34.711Z,993.86
2019-02-07T01:28:34.796Z,993.81
2019-02-07T01:29:34.883Z,993.80
2019-02-07T01:30:34.968Z,993.78
2019-02-07T01:31:35.052Z,993.79
2019-02-07T01:32:35.137Z,993.78
2019-02-07T01:33:35.224Z,993.72
2019-02-07T01:34:35.310Z,993.71
2019-02-07T01:35:35.399Z,993.66
2019-02-07T01:36:35.486Z,993.67
2019-02-07T01:37:35.571Z,993.62
2019-02-07T01:38:35.655Z,993.64
2019-02-07T01:39:35.744Z,993.58
2019-02-07T01:40:35.830Z,993.56
2019-02-07T01:41:35.914Z,993.55
2019-02-07T01:42:35.995Z,993.54
2019-02-07T01:43:36.078Z,993.50
2019-02-07T01:44:36.162Z,993.52
2019-02-07T01:45:36.248Z,993.50
2019-02-07T01:46:36.338Z,993.54
2019-02-07T01:47:36.424Z,993.55
2019-02-07T01:48:36.514Z,993.55
2019-02-07T01:49:36.600Z,993.51
2019-02-07T01:50:36.685Z,993.54
2019-02-07T01:51:36.769Z,993.50
2019-02-07T01:52:36.856Z,993.57
2019-02-07T01:53:36.941Z,993.57
2019-02-07T01:54:37.014Z,993.59
2019-02-07T01:55:37.116Z,993.59
2019-02-07T01:56:37.205Z,993.59
2019-02-07T01:57:37.291Z,993.57
2019-02-07T01:58:37.379Z,993.53
2019-02-07T01:59:37.471Z,993.49
2019-02-07T02:00:37.554Z,993.45
2019-02-07T02:01:37.638Z,993.43
2019-02-07T02:02:37.726Z,993.38
2019-02-07T02:03:37.813Z,993.40
2019-02-07T02:04:37.896Z,993.37
2019-02-07T02:05:37.985Z,993.32
2019-02-07T02:06:38.071Z,993.34
2019-02-07T02:07:38.151Z,993.32
2019-02-07T02:08:38.246Z,993.30
2019-02-07T02:09:38.333Z,993.28
2019-02-07T02:10:38.415Z,993.28
2019-02-07T02:11:38.504Z,993.27
2019-02-07T02:12:38.589Z,993.29
2019-02-07T02:13:38.673Z,993.26
2019-02-07T02:14:38.767Z,993.24
2019-02-07T02:15:38.852Z,993.22
2019-02-07T02:16:38.936Z,993.18
2019-02-07T02:17:39.026Z,993.19
2019-02-07T02:18:39.110Z,993.16
2019-02-07T02:19:39.196Z,993.09
2019-02-07T02:20:39.281Z,993.08
2019-02-07T02:21:39.369Z,993.06
2019-02-07T02:22:39.453Z,993.07
2019-02-07T02:23:39.539Z,993.09
2019-02-07T02:24:39.629Z,993.04
2019-02-07T02:25:39.717Z,993.05
2019-02-07T02:26:39.805Z,992.99
2019-02-07T02:27:39.895Z,992.99
2019-02-07T02:28:39.987Z,992.93
2019-02-07T02:29:40.072Z,992.95
2019-02-07T02:30:40.163Z,992.93
2019-02-07T02:31:40.263Z,992.90
2019-02-07T02:32:40.350Z,992.85
2019-02-07T02:33:40.435Z,992.84
2019-02-07T02:34:40.525Z,992.80
2019-02-07T02:35:40.607Z,992.75
2019-02-07T02:36:40.695Z,992.71
2019-02-07T02:37:40.786Z,992.67
2019-02-07T02:38:40.870Z,992.66
2019-02-07T02:39:40.959Z,992.61
2019-02-07T02:40:41.049Z,992.63
2019-02-07T02:41:41.134Z,992.61
2019-02-07T02:42:41.217Z,992.59
2019-02-07T02:43:41.300Z,992.55
2019-02-07T02:44:41.388Z,992.58
2019-02-07T02:45:41.477Z,992.53
2019-02-07T02:46:41.561Z,992.60
2019-02-07T02:47:41.647Z,992.58
2019-02-07T02:48:41.738Z,992.63
2019-02-07T02:49:41.824Z,992.68
2019-02-07T02:50:41.911Z,992.60
2019-02-07T02:51:41.996Z,992.57
2019-02-07T02:52:42.082Z,992.53
2019-02-07T02:53:42.169Z,992.47
2019-02-07T02:54:42.255Z,992.41
2019-02-07T02:55:42.349Z,992.33
2019-02-07T02:56:42.425Z,992.29
2019-02-07T02:57:42.510Z,992.21
2019-02-07T02:58:42.601Z,992.23
2019-02-07T02:59:42.688Z,992.19
2019-02-07T03:00:42.774Z,992.16
2019-02-07T03:01:42.858Z,992.19
2019-02-07T03:02:42.946Z,992.16
2019-02-07T03:03:43.032Z,992.15
2019-02-07T03:04:43.119Z,992.15
2019-02-07T03:05:43.298Z,992.15
2019-02-07T03:06:43.295Z,992.11
2019-02-07T03:07:43.381Z,992.14
2019-02-07T03:08:43.565Z,992.17
2019-02-07T03:09:43.565Z,992.15
2019-02-07T03:10:43.636Z,992.09
2019-02-07T03:11:43.724Z,992.09
2019-02-07T03:12:43.807Z,992.12
2019-02-07T03:13:43.896Z,992.12
2019-02-07T03:14:43.971Z,992.12
2019-02-07T03:15:49.669Z,992.05
2019-02-07T03:16:44.151Z,992.06
2019-02-07T03:17:44.235Z,991.98
2019-02-07T03:18:44.322Z,991.97
2019-02-07T03:19:44.413Z,991.90
2019-02-07T03:20:44.499Z,991.89
2019-02-07T03:21:44.584Z,991.88
2019-02-07T03:22:44.668Z,991.87
2019-02-07T03:23:44.750Z,991.88
2019-02-07T03:24:44.837Z,991.87
2019-02-07T03:25:44.927Z,991.83
2019-02-07T03:26:45.011Z,991.79
2019-02-07T03:27:45.096Z,991.76
2019-02-07T03:28:45.182Z,991.76
2019-02-07T03:29:45.269Z,991.75
2019-02-07T03:30:45.366Z,991.73
2019-02-07T03:31:45.445Z,991.71
2019-02-07T03:32:45.531Z,991.73
2019-02-07T03:33:45.623Z,991.67
2019-02-07T03:34:45.709Z,991.64
2019-02-07T03:35:45.792Z,991.63
2019-02-07T03:36:45.876Z,991.60
2019-02-07T03:37:45.966Z,991.57
2019-02-07T03:38:46.055Z,991.56
2019-02-07T03:39:46.140Z,991.57
2019-02-07T03:40:46.229Z,991.60
2019-02-07T03:41:46.310Z,991.65
2019-02-07T03:42:46.414Z,991.63
2019-02-07T03:43:46.483Z,991.58
2019-02-07T03:44:46.644Z,991.54
2019-02-07T03:45:46.674Z,991.52
2019-02-07T03:46:46.762Z,991.51
2019-02-07T03:47:46.854Z,991.50
2019-02-07T03:48:46.942Z,991.44
2019-02-07T03:49:47.028Z,991.49
2019-02-07T03:50:47.119Z,991.48
2019-02-07T03:51:47.197Z,991.45
2019-02-07T03:52:47.284Z,991.45
2019-02-07T03:53:47.369Z,991.45
2019-02-07T03:54:47.458Z,991.48
2019-02-07T03:55:47.543Z,991.46
2019-02-07T03:56:47.629Z,991.45
2019-02-07T03:57:47.719Z,991.45
2019-02-07T03:58:47.803Z,991.36
2019-02-07T03:59:47.890Z,991.28
2019-02-07T04:00:47.980Z,991.26
2019-02-07T04:01:48.061Z,991.29
2019-02-07T04:02:48.148Z,991.30
2019-02-07T04:03:48.232Z,991.29
2019-02-07T04:04:48.319Z,991.32
2019-02-07T04:05:48.401Z,991.34
2019-02-07T04:06:48.487Z,991.29
2019-02-07T04:07:48.576Z,991.25
2019-02-07T04:08:48.660Z,991.23
2019-02-07T04:09:48.751Z,991.27
2019-02-07T04:10:48.837Z,991.22
2019-02-07T04:11:48.926Z,991.22
2019-02-07T04:12:49.011Z,991.18
2019-02-07T04:13:49.093Z,991.20
2019-02-07T04:14:49.179Z,991.22
2019-02-07T04:15:49.268Z,991.20
2019-02-07T04:16:49.351Z,991.17
2019-02-07T04:17:49.433Z,991.19
2019-02-07T04:18:49.519Z,991.15
2019-02-07T04:19:49.602Z,991.08
2019-02-07T04:20:49.687Z,991.03
2019-02-07T04:21:49.771Z,991.03
2019-02-07T04:22:49.860Z,991.06
2019-02-07T04:23:49.942Z,991.14
2019-02-07T04:24:50.033Z,991.19
2019-02-07T04:25:50.125Z,991.20
2019-02-07T04:26:50.206Z,991.08
2019-02-07T04:27:50.288Z,991.02
2019-02-07T04:28:50.372Z,991.12
2019-02-07T04:29:50.459Z,991.12
2019-02-07T04:30:50.545Z,991.12
2019-02-07T04:31:50.637Z,991.09
2019-02-07T04:32:50.724Z,991.04
2019-02-07T04:33:50.918Z,991.04
2019-02-07T04:34:50.894Z,991.02
2019-02-07T04:35:50.979Z,991.05
2019-02-07T04:36:51.067Z,991.03
2019-02-07T04:37:51.164Z,991.01
2019-02-07T04:38:51.242Z,990.98
2019-02-07T04:39:51.326Z,990.98
2019-02-07T04:40:51.415Z,991.06
2019-02-07T04:41:51.501Z,991.03
2019-02-07T04:42:51.588Z,990.98
2019-02-07T04:43:51.677Z,991.02
2019-02-07T04:44:51.769Z,990.89
2019-02-07T04:45:51.852Z,990.82
2019-02-07T04:46:51.941Z,990.85
2019-02-07T04:47:52.030Z,990.79
2019-02-07T04:48:52.118Z,990.79
2019-02-07T04:49:52.203Z,990.83
2019-02-07T04:50:52.291Z,990.78
2019-02-07T04:51:52.375Z,990.78
2019-02-07T04:52:52.480Z,990.72
2019-02-07T04:53:52.551Z,990.69
2019-02-07T04:54:52.638Z,990.81
2019-02-07T04:55:52.720Z,990.76
2019-02-07T04:56:52.806Z,990.75
2019-02-07T04:57:52.892Z,990.74
2019-02-07T04:58:52.980Z,990.75
2019-02-07T04:59:53.063Z,990.76
2019-02-07T05:00:53.161Z,990.76
2019-02-07T05:01:53.237Z,990.71
2019-02-07T05:02:53.326Z,990.68
2019-02-07T05:03:53.422Z,990.70
2019-02-07T05:04:53.510Z,990.68
2019-02-07T05:05:53.595Z,990.66
2019-02-07T05:06:53.684Z,990.66
2019-02-07T05:07:53.771Z,990.61
2019-02-07T05:08:53.858Z,990.59
2019-02-07T05:09:53.944Z,990.60
2019-02-07T05:10:54.030Z,990.57
2019-02-07T05:11:54.116Z,990.59
2019-02-07T05:12:54.203Z,990.61
2019-02-07T05:13:54.291Z,990.56
2019-02-07T05:14:54.378Z,990.59
2019-02-07T05:15:54.458Z,990.55
2019-02-07T05:16:54.547Z,990.61
2019-02-07T05:17:54.635Z,990.61
2019-02-07T05:18:54.719Z,990.59
2019-02-07T05:19:54.807Z,990.54
2019-02-07T05:20:54.891Z,990.57
2019-02-07T05:21:54.981Z,990.54
2019-02-07T05:22:55.067Z,990.45
2019-02-07T05:23:55.152Z,990.47
2019-02-07T05:24:55.234Z,990.45
2019-02-07T05:25:55.322Z,990.46
2019-02-07T05:26:55.408Z,990.42
2019-02-07T05:27:55.490Z,990.40
2019-02-07T05:28:55.580Z,990.36
2019-02-07T05:29:55.671Z,990.28
2019-02-07T05:30:55.759Z,990.27
2019-02-07T05:31:55.843Z,990.24
2019-02-07T05:32:55.933Z,990.25
2019-02-07T05:33:56.023Z,990.25
2019-02-07T05:34:56.100Z,990.24
2019-02-07T05:35:56.194Z,990.18
2019-02-07T05:36:56.282Z,990.17
2019-02-07T05:37:56.370Z,990.24
2019-02-07T05:38:56.458Z,990.21
2019-02-07T05:39:56.543Z,990.20
2019-02-07T05:40:56.619Z,990.18
2019-02-07T05:41:56.718Z,990.15
2019-02-07T05:42:56.803Z,990.14
2019-02-07T05:43:56.892Z,990.10
2019-02-07T05:44:56.981Z,990.10
2019-02-07T05:45:57.066Z,989.98
2019-02-07T05:46:57.153Z,990.00
2019-02-07T05:47:57.314Z,989.96
2019-02-07T05:48:57.325Z,989.99
2019-02-07T05:49:57.415Z,990.01
2019-02-07T05:50:57.501Z,990.05
2019-02-07T05:51:57.587Z,990.03
2019-02-07T05:52:57.670Z,990.06
2019-02-07T05:53:57.798Z,990.06
2019-02-07T05:54:57.842Z,990.09
2019-02-07T05:55:57.927Z,990.10
2019-02-07T05:56:58.014Z,990.07
2019-02-07T05:57:58.101Z,990.04
2019-02-07T05:58:59.275Z,990.00
2019-02-07T05:59:58.284Z,989.96
2019-02-07T06:00:58.358Z,989.93
2019-02-07T06:01:58.445Z,989.94
2019-02-07T06:02:58.533Z,989.94
2019-02-07T06:03:58.616Z,989.87
2019-02-07T06:04:58.705Z,989.82
2019-02-07T06:05:58.794Z,989.76
2019-02-07T06:06:58.877Z,989.85
2019-02-07T06:07:58.967Z,989.84
2019-02-07T06:08:59.051Z,989.85
2019-02-07T06:09:59.217Z,989.85
2019-02-07T06:10:59.251Z,989.86
2019-02-07T06:11:59.330Z,989.90
2019-02-07T06:12:59.424Z,989.93
2019-02-07T06:13:59.512Z,989.87
2019-02-07T06:14:59.604Z,989.91
2019-02-07T06:15:59.693Z,989.91
2019-02-07T06:17:02.699Z,989.94
2019-02-07T06:17:59.864Z,989.89
2019-02-07T06:18:59.951Z,989.87
2019-02-07T06:20:00.047Z,989.83
2019-02-07T06:21:00.130Z,989.83
2019-02-07T06:22:00.274Z,989.83
2019-02-07T06:23:00.410Z,989.87
2019-02-07T06:24:00.395Z,989.88
2019-02-07T06:25:00.485Z,989.83
2019-02-07T06:26:00.584Z,989.87
2019-02-07T06:27:00.661Z,989.84
2019-02-07T06:28:00.751Z,989.88
2019-02-07T06:29:00.836Z,989.84
2019-02-07T06:30:00.919Z,989.86
2019-02-07T06:31:01.016Z,989.85
2019-02-07T06:32:01.102Z,989.85
2019-02-07T06:33:01.194Z,989.80
2019-02-07T06:34:01.288Z,989.83
2019-02-07T06:35:01.369Z,989.81
2019-02-07T06:36:01.460Z,989.80
2019-02-07T06:37:01.546Z,989.79
2019-02-07T06:38:01.634Z,989.74
2019-02-07T06:39:01.719Z,989.70
2019-02-07T06:40:01.807Z,989.70
2019-02-07T06:41:01.895Z,989.73
2019-02-07T06:42:02.024Z,989.79
2019-02-07T06:43:02.097Z,989.82
2019-02-07T06:44:02.184Z,989.83
2019-02-07T06:45:02.266Z,989.86
2019-02-07T06:46:02.354Z,989.83
2019-02-07T06:47:13.028Z,989.83
2019-02-07T06:48:02.534Z,989.85
2019-02-07T06:49:02.621Z,989.87
2019-02-07T06:50:02.708Z,989.88
2019-02-07T06:51:02.793Z,989.89
2019-02-07T06:52:02.885Z,989.89
2019-02-07T06:53:02.974Z,989.94
2019-02-07T06:54:03.073Z,989.88
2019-02-07T06:55:03.146Z,989.85
2019-02-07T06:56:03.225Z,989.77
2019-02-07T06:57:03.317Z,989.84
2019-02-07T06:58:03.405Z,989.81
2019-02-07T06:59:03.492Z,989.70
2019-02-07T07:00:03.583Z,989.68
2019-02-07T07:01:03.662Z,989.68
2019-02-07T07:02:03.751Z,989.70
2019-02-07T07:03:03.836Z,989.65
2019-02-07T07:04:03.926Z,989.71
2019-02-07T07:05:04.012Z,989.66
2019-02-07T07:06:04.100Z,989.65
2019-02-07T07:07:04.194Z,989.64
2019-02-07T07:08:04.280Z,989.62
2019-02-07T07:09:04.368Z,989.64
2019-02-07T07:10:04.456Z,989.61
2019-02-07T07:11:04.546Z,989.60
2019-02-07T07:12:04.630Z,989.65
2019-02-07T07:13:04.717Z,989.67
2019-02-07T07:14:04.802Z,989.64
2019-02-07T07:15:04.888Z,989.58
2019-02-07T07:16:04.973Z,989.58
2019-02-07T07:17:05.067Z,989.65
2019-02-07T07:18:05.152Z,989.59
2019-02-07T07:19:05.240Z,989.59
2019-02-07T07:20:05.327Z,989.57
2019-02-07T07:21:05.416Z,989.54
2019-02-07T07:22:05.514Z,989.53
2019-02-07T07:23:05.604Z,989.57
2019-02-07T07:24:05.687Z,989.55
2019-02-07T07:25:05.779Z,989.53
2019-02-07T07:26:05.866Z,989.48
2019-02-07T07:27:05.958Z,989.48
2019-02-07T07:28:06.041Z,989.47
2019-02-07T07:29:06.128Z,989.45
2019-02-07T07:30:06.217Z,989.42
2019-02-07T07:31:06.308Z,989.44
2019-02-07T07:32:06.392Z,989.39
2019-02-07T07:33:06.479Z,989.33
2019-02-07T07:34:06.567Z,989.31
2019-02-07T07:35:06.654Z,989.43
2019-02-07T07:36:06.742Z,989.41
2019-02-07T07:37:06.828Z,989.41
2019-02-07T07:38:06.914Z,989.33
2019-02-07T07:39:07.000Z,989.33
2019-02-07T07:40:07.085Z,989.37
2019-02-07T07:41:07.170Z,989.36
2019-02-07T07:42:07.259Z,989.34
2019-02-07T07:43:07.353Z,989.35
2019-02-07T07:44:07.431Z,989.33
2019-02-07T07:45:07.515Z,989.31
2019-02-07T07:46:07.601Z,989.25
2019-02-07T07:47:07.689Z,989.26
2019-02-07T07:48:07.779Z,989.26
2019-02-07T07:49:10.442Z,989.29
2019-02-07T07:50:07.952Z,989.25
2019-02-07T07:51:08.038Z,989.28
2019-02-07T07:52:08.126Z,989.24
2019-02-07T07:53:08.211Z,989.24
2019-02-07T07:54:08.305Z,989.27
2019-02-07T07:55:08.398Z,989.26
2019-02-07T07:56:08.487Z,989.21
2019-02-07T07:57:08.573Z,989.23
2019-02-07T07:58:08.668Z,989.23
2019-02-07T07:59:08.755Z,989.21
2019-02-07T08:00:08.844Z,989.20
2019-02-07T08:01:08.932Z,989.18
2019-02-07T08:02:09.023Z,989.27
2019-02-07T08:03:09.107Z,989.18
2019-02-07T08:04:09.197Z,989.19
2019-02-07T08:05:09.280Z,989.25
2019-02-07T08:06:09.370Z,989.23
2019-02-07T08:07:09.459Z,989.21
2019-02-07T08:08:09.557Z,989.25
2019-02-07T08:09:09.641Z,989.20
2019-02-07T08:10:09.730Z,989.23
2019-02-07T08:11:09.817Z,989.27
2019-02-07T08:12:09.909Z,989.30
2019-02-07T08:13:09.992Z,989.33
2019-02-07T08:14:10.084Z,989.31
2019-02-07T08:15:10.170Z,989.24
2019-02-07T08:16:10.256Z,989.30
2019-02-07T08:17:10.342Z,989.31
2019-02-07T08:18:10.426Z,989.31
2019-02-07T08:19:10.514Z,989.32
2019-02-07T08:20:10.602Z,989.34
2019-02-07T08:21:10.688Z,989.35
2019-02-07T08:22:10.778Z,989.31
2019-02-07T08:23:10.863Z,989.31
2019-02-07T08:24:10.951Z,989.32
2019-02-07T08:25:11.039Z,989.29
2019-02-07T08:26:11.127Z,989.24
2019-02-07T08:27:11.215Z,989.22
2019-02-07T08:28:11.309Z,989.17
2019-02-07T08:29:11.389Z,989.16
2019-02-07T08:30:11.478Z,989.19
2019-02-07T08:31:11.567Z,989.20
2019-02-07T08:32:11.654Z,989.25
2019-02-07T08:33:11.736Z,989.19
2019-02-07T08:34:11.824Z,989.28
2019-02-07T08:35:11.913Z,989.26
2019-02-07T08:36:12.003Z,989.28
2019-02-07T08:37:12.088Z,989.31
2019-02-07T08:38:12.170Z,989.32
2019-02-07T08:39:12.261Z,989.29
2019-02-07T08:40:12.345Z,989.19
2019-02-07T08:41:12.433Z,989.18
2019-02-07T08:42:12.519Z,989.17
2019-02-07T08:43:12.607Z,989.21
2019-02-07T08:44:14.148Z,989.24
2019-02-07T08:45:12.782Z,989.21
2019-02-07T08:46:12.868Z,989.25
2019-02-07T08:47:12.983Z,989.20
2019-02-07T08:48:13.043Z,989.19
2019-02-07T08:49:13.133Z,989.17
2019-02-07T08:50:13.220Z,989.20
2019-02-07T08:51:13.310Z,989.18
2019-02-07T08:52:13.436Z,989.13
2019-02-07T08:53:13.528Z,989.14
2019-02-07T08:54:13.574Z,989.17
2019-02-07T08:55:13.666Z,989.24
2019-02-07T08:56:13.750Z,989.20
2019-02-07T08:57:13.835Z,989.20
2019-02-07T08:58:13.926Z,989.16
2019-02-07T08:59:14.013Z,989.16
2019-02-07T09:00:14.099Z,989.09
2019-02-07T09:01:14.189Z,989.07
2019-02-07T09:02:14.278Z,989.07
2019-02-07T09:03:14.363Z,988.99
2019-02-07T09:04:14.453Z,988.95
2019-02-07T09:05:14.538Z,988.99
2019-02-07T09:06:14.624Z,988.99
2019-02-07T09:07:14.712Z,989.01
2019-02-07T09:08:14.803Z,989.01
2019-02-07T09:09:14.889Z,988.95
2019-02-07T09:10:14.977Z,988.92
2019-02-07T09:11:15.067Z,988.96
2019-02-07T09:12:15.153Z,988.92
2019-02-07T09:13:15.241Z,988.92
2019-02-07T09:14:15.358Z,988.89
2019-02-07T09:15:15.445Z,988.90
2019-02-07T09:16:15.532Z,988.96
2019-02-07T09:17:15.622Z,988.94
2019-02-07T09:18:15.708Z,988.94
2019-02-07T09:19:15.798Z,988.94
2019-02-07T09:20:15.890Z,988.88
2019-02-07T09:21:15.974Z,988.94
2019-02-07T09:22:16.065Z,988.95
2019-02-07T09:23:16.154Z,988.96
2019-02-07T09:24:16.247Z,988.92
2019-02-07T09:25:16.338Z,988.91
2019-02-07T09:26:16.427Z,988.93
2019-02-07T09:27:25.187Z,988.92
2019-02-07T09:28:16.801Z,988.88
2019-02-07T09:29:16.731Z,988.92
2019-02-07T09:30:16.815Z,988.92
2019-02-07T09:31:16.900Z,988.90
2019-02-07T09:32:17.002Z,988.96
2019-02-07T09:33:17.062Z,988.97
2019-02-07T09:34:17.152Z,988.91
2019-02-07T09:35:17.234Z,988.81
2019-02-07T09:36:17.325Z,988.84
2019-02-07T09:37:17.411Z,988.83
2019-02-07T09:38:17.499Z,988.85
2019-02-07T09:39:17.591Z,988.86
2019-02-07T09:40:17.694Z,988.87
2019-02-07T09:41:17.764Z,988.87
2019-02-07T09:42:17.852Z,988.87
2019-02-07T09:43:17.942Z,988.92
2019-02-07T09:44:18.036Z,988.87
2019-02-07T09:45:18.119Z,988.85
2019-02-07T09:46:18.206Z,988.85
2019-02-07T09:47:18.297Z,988.86
2019-02-07T09:48:21.675Z,988.88
2019-02-07T09:49:18.465Z,988.87
2019-02-07T09:50:18.556Z,988.89
2019-02-07T09:51:18.655Z,988.83
2019-02-07T09:52:18.735Z,988.84
2019-02-07T09:53:24.050Z,988.85
2019-02-07T09:54:18.955Z,988.85
2019-02-07T09:55:19.016Z,988.88
2019-02-07T09:56:19.104Z,988.94
2019-02-07T09:57:19.179Z,988.95
2019-02-07T09:58:19.266Z,988.91
2019-02-07T09:59:19.332Z,988.87
2019-02-07T10:00:19.423Z,988.82
2019-02-07T10:01:19.497Z,988.90
2019-02-07T10:02:19.600Z,988.97
2019-02-07T10:03:19.692Z,988.93
2019-02-07T10:04:19.772Z,988.96
2019-02-07T10:05:19.847Z,988.91
2019-02-07T10:06:19.947Z,988.92
2019-02-07T10:07:20.034Z,988.93
2019-02-07T10:08:20.126Z,988.92
2019-02-07T10:09:20.206Z,988.96
2019-02-07T10:10:20.297Z,988.98
2019-02-07T10:11:20.370Z,989.00
2019-02-07T10:12:20.444Z,988.96
2019-02-07T10:13:20.548Z,988.97
2019-02-07T10:14:20.629Z,988.93
2019-02-07T10:15:20.716Z,988.93
2019-02-07T10:16:20.796Z,988.87
2019-02-07T10:17:20.891Z,988.91
2019-02-07T10:18:20.985Z,988.91
2019-02-07T10:19:21.067Z,988.94
2019-02-07T10:20:21.149Z,988.95
2019-02-07T10:21:21.233Z,988.94
2019-02-07T10:22:21.321Z,988.96
2019-02-07T10:23:21.408Z,988.99
2019-02-07T10:24:21.503Z,988.99
2019-02-07T10:25:21.592Z,989.03
2019-02-07T10:26:21.675Z,989.03
2019-02-07T10:27:21.771Z,989.03
2019-02-07T10:28:21.853Z,989.02
2019-02-07T10:29:21.936Z,989.00
2019-02-07T10:30:22.031Z,988.99
2019-02-07T10:31:22.116Z,989.04
2019-02-07T10:32:22.196Z,989.04
2019-02-07T10:33:22.290Z,989.09
2019-02-07T10:34:22.376Z,989.12
2019-02-07T10:35:23.133Z,989.09
2019-02-07T10:36:22.551Z,989.12
2019-02-07T10:37:22.624Z,989.11
2019-02-07T10:38:22.706Z,989.12
2019-02-07T10:39:22.833Z,989.08
2019-02-07T10:40:22.905Z,989.04
2019-02-07T10:41:22.988Z,989.05
2019-02-07T10:42:23.081Z,989.11
2019-02-07T10:43:23.172Z,989.08
2019-02-07T10:44:23.252Z,989.03
2019-02-07T10:45:23.332Z,989.04
2019-02-07T10:46:23.424Z,989.00
2019-02-07T10:47:23.510Z,988.97
2019-02-07T10:48:23.600Z,988.93
2019-02-07T10:49:23.692Z,988.91
2019-02-07T10:50:23.778Z,988.85
2019-02-07T10:51:23.865Z,988.86
2019-02-07T10:52:23.951Z,988.83
2019-02-07T10:53:24.041Z,988.83
2019-02-07T10:54:24.131Z,988.82
2019-02-07T10:55:24.219Z,988.81
2019-02-07T10:56:24.308Z,988.79
2019-02-07T10:57:24.395Z,988.84
2019-02-07T10:58:25.527Z,988.79
2019-02-07T10:59:24.566Z,988.77
2019-02-07T11:00:24.660Z,988.76
2019-02-07T11:01:24.746Z,988.83
2019-02-07T11:02:24.833Z,988.86
2019-02-07T11:03:24.918Z,988.86
2019-02-07T11:04:25.010Z,988.82
2019-02-07T11:05:25.098Z,988.84
2019-02-07T11:06:25.180Z,988.79
2019-02-07T11:07:25.274Z,988.73
2019-02-07T11:08:25.358Z,988.75
2019-02-07T11:09:25.444Z,988.76
2019-02-07T11:10:25.670Z,988.74
2019-02-07T11:11:25.624Z,988.68
2019-02-07T11:12:25.709Z,988.64
2019-02-07T11:13:25.799Z,988.65
2019-02-07T11:14:25.890Z,988.62
2019-02-07T11:15:25.977Z,988.65
2019-02-07T11:16:26.063Z,988.69
2019-02-07T11:17:26.157Z,988.67
2019-02-07T11:18:26.240Z,988.66
2019-02-07T11:19:26.329Z,988.71
2019-02-07T11:20:26.416Z,988.71
2019-02-07T11:21:26.504Z,988.69
2019-02-07T11:22:26.594Z,988.68
2019-02-07T11:23:26.692Z,988.70
2019-02-07T11:24:26.775Z,988.66
2019-02-07T11:25:26.863Z,988.65
2019-02-07T11:26:26.947Z,988.62
2019-02-07T11:27:27.031Z,988.56
2019-02-07T11:28:27.130Z,988.60
2019-02-07T11:29:27.207Z,988.54
2019-02-07T11:30:27.292Z,988.46
2019-02-07T11:31:27.378Z,988.47
2019-02-07T11:32:27.463Z,988.48
2019-02-07T11:33:27.536Z,988.45
2019-02-07T11:34:27.625Z,988.52
2019-02-07T11:35:27.715Z,988.59
2019-02-07T11:36:27.799Z,988.58
2019-02-07T11:37:27.877Z,988.54
2019-02-07T11:38:27.975Z,988.58
2019-02-07T11:39:29.809Z,988.55
2019-02-07T11:40:28.159Z,988.49
2019-02-07T11:41:28.274Z,988.47
2019-02-07T11:42:28.421Z,988.48
2019-02-07T11:43:28.399Z,988.50
2019-02-07T11:44:28.512Z,988.49
2019-02-07T11:45:28.576Z,988.50
2019-02-07T11:46:28.683Z,988.48
2019-02-07T11:47:28.799Z,988.42
2019-02-07T11:48:28.979Z,988.44
2019-02-07T11:49:29.054Z,988.47
2019-02-07T11:50:29.150Z,988.43
2019-02-07T11:51:29.237Z,988.43
2019-02-07T11:52:29.356Z,988.38
2019-02-07T11:53:29.423Z,988.38
2019-02-07T11:54:29.539Z,988.39
2019-02-07T11:55:29.613Z,988.43
2019-02-07T11:56:29.730Z,988.47
2019-02-07T11:57:29.812Z,988.41
2019-02-07T11:58:29.913Z,988.37
2019-02-07T11:59:30.038Z,988.38
2019-02-07T12:00:30.187Z,988.40
2019-02-07T12:01:30.176Z,988.47
2019-02-07T12:02:30.285Z,988.44
2019-02-07T12:03:30.393Z,988.48
2019-02-07T12:04:30.481Z,988.44
2019-02-07T12:05:30.604Z,988.42
2019-02-07T12:06:30.726Z,988.42
2019-02-07T12:07:30.790Z,988.46
2019-02-07T12:08:30.885Z,988.39
2019-02-07T12:09:31.020Z,988.36
2019-02-07T12:10:31.108Z,988.33
2019-02-07T12:11:31.211Z,988.30
2019-02-07T12:12:31.322Z,988.33
2019-02-07T12:13:31.438Z,988.40
2019-02-07T12:14:31.542Z,988.38
2019-02-07T12:15:31.638Z,988.41
2019-02-07T12:16:31.736Z,988.40
2019-02-07T12:17:31.860Z,988.39
2019-02-07T12:18:31.977Z,988.43
2019-02-07T12:19:32.082Z,988.38
2019-02-07T12:20:32.200Z,988.37
2019-02-07T12:21:32.274Z,988.41
2019-02-07T12:22:32.379Z,988.42
2019-02-07T12:23:32.456Z,988.40
2019-02-07T12:24:32.562Z,988.42
2019-02-07T12:25:32.667Z,988.35
2019-02-07T12:26:32.765Z,988.33
2019-02-07T12:27:32.901Z,988.41
2019-02-07T12:28:35.921Z,988.37
2019-02-07T12:29:33.159Z,988.37